sensor_id;sensor_type;location;lat;lon;timestamp;P1;durP1;ratioP1;P2;durP2;ratioP2
81834;SDS011;71272;52.166;4.498;2024-03-08T00:01:25;41.03;;;16.93;;
81834;SDS011;71272;52.166;4.498;2024-03-08T00:03:50;37.13;;;14.87;;
81834;SDS011;71272;52.166;4.498;2024-03-08T00:06:17;39.75;;;15.05;;
81834;SDS011;71272;52.166;4.498;2024-03-08T00:08:42;44.22;;;17.27;;
81834;SDS011;71272;52.166;4.498;2024-03-08T00:11:07;35.40;;;14.80;;
81834;SDS011;71272;52.166;4.498;2024-03-08T00:13:33;42.90;;;16.00;;
81834;SDS011;71272;52.166;4.498;2024-03-08T00:15:59;41.63;;;17.75;;
81834;SDS011;71272;52.166;4.498;2024-03-08T00:18:24;38.90;;;17.67;;
81834;SDS011;71272;52.166;4.498;2024-03-08T00:20:49;39.43;;;16.50;;
81834;SDS011;71272;52.166;4.498;2024-03-08T00:23:15;40.42;;;16.27;;
81834;SDS011;71272;52.166;4.498;2024-03-08T00:25:41;39.65;;;16.50;;
81834;SDS011;71272;52.166;4.498;2024-03-08T00:28:06;41.90;;;15.90;;
81834;SDS011;71272;52.166;4.498;2024-03-08T00:30:32;40.90;;;16.30;;
81834;SDS011;71272;52.166;4.498;2024-03-08T00:32:57;46.53;;;17.20;;
81834;SDS011;71272;52.166;4.498;2024-03-08T00:35:22;39.90;;;16.53;;
81834;SDS011;71272;52.166;4.498;2024-03-08T00:37:48;42.33;;;15.30;;
81834;SDS011;71272;52.166;4.498;2024-03-08T00:40:13;42.40;;;16.65;;
81834;SDS011;71272;52.166;4.498;2024-03-08T00:42:39;37.33;;;15.10;;
81834;SDS011;71272;52.166;4.498;2024-03-08T00:45:06;42.17;;;15.65;;
81834;SDS011;71272;52.166;4.498;2024-03-08T00:47:31;37.80;;;15.13;;
81834;SDS011;71272;52.166;4.498;2024-03-08T00:49:57;39.93;;;15.90;;
81834;SDS011;71272;52.166;4.498;2024-03-08T00:52:22;43.47;;;16.55;;
81834;SDS011;71272;52.166;4.498;2024-03-08T00:54:49;41.38;;;17.60;;
81834;SDS011;71272;52.166;4.498;2024-03-08T00:57:14;46.53;;;16.73;;
81834;SDS011;71272;52.166;4.498;2024-03-08T00:59:39;40.80;;;17.07;;
81834;SDS011;71272;52.166;4.498;2024-03-08T01:02:05;36.75;;;14.82;;
81834;SDS011;71272;52.166;4.498;2024-03-08T01:04:31;38.00;;;16.73;;
81834;SDS011;71272;52.166;4.498;2024-03-08T01:06:57;44.47;;;17.90;;
81834;SDS011;71272;52.166;4.498;2024-03-08T01:09:23;40.90;;;15.90;;
81834;SDS011;71272;52.166;4.498;2024-03-08T01:11:49;39.92;;;17.50;;
81834;SDS011;71272;52.166;4.498;2024-03-08T01:14:15;41.38;;;18.00;;
81834;SDS011;71272;52.166;4.498;2024-03-08T01:16:40;44.92;;;16.95;;
81834;SDS011;71272;52.166;4.498;2024-03-08T01:19:06;41.80;;;17.50;;
81834;SDS011;71272;52.166;4.498;2024-03-08T01:21:31;35.55;;;16.65;;
81834;SDS011;71272;52.166;4.498;2024-03-08T01:23:57;38.30;;;16.53;;
81834;SDS011;71272;52.166;4.498;2024-03-08T01:26:22;40.33;;;15.13;;
81834;SDS011;71272;52.166;4.498;2024-03-08T01:28:47;44.73;;;16.67;;
81834;SDS011;71272;52.166;4.498;2024-03-08T01:31:13;42.13;;;17.25;;
81834;SDS011;71272;52.166;4.498;2024-03-08T01:33:39;42.77;;;16.77;;
81834;SDS011;71272;52.166;4.498;2024-03-08T01:36:05;45.83;;;17.27;;
81834;SDS011;71272;52.166;4.498;2024-03-08T01:38:30;41.05;;;16.88;;
81834;SDS011;71272;52.166;4.498;2024-03-08T01:40:56;39.93;;;16.20;;
81834;SDS011;71272;52.166;4.498;2024-03-08T01:43:21;37.97;;;17.02;;
81834;SDS011;71272;52.166;4.498;2024-03-08T01:45:50;39.80;;;16.45;;
81834;SDS011;71272;52.166;4.498;2024-03-08T01:48:15;42.55;;;16.35;;
81834;SDS011;71272;52.166;4.498;2024-03-08T01:50:42;37.10;;;15.13;;
81834;SDS011;71272;52.166;4.498;2024-03-08T01:53:07;38.35;;;16.42;;
81834;SDS011;71272;52.166;4.498;2024-03-08T01:55:35;42.22;;;16.08;;
81834;SDS011;71272;52.166;4.498;2024-03-08T01:58:01;38.03;;;15.23;;
81834;SDS011;71272;52.166;4.498;2024-03-08T02:00:29;36.25;;;16.15;;
81834;SDS011;71272;52.166;4.498;2024-03-08T02:02:55;42.03;;;15.77;;
81834;SDS011;71272;52.166;4.498;2024-03-08T02:05:21;36.25;;;16.05;;
81834;SDS011;71272;52.166;4.498;2024-03-08T02:07:46;39.78;;;16.58;;
81834;SDS011;71272;52.166;4.498;2024-03-08T02:10:12;34.47;;;16.05;;
81834;SDS011;71272;52.166;4.498;2024-03-08T02:12:37;40.72;;;18.27;;
81834;SDS011;71272;52.166;4.498;2024-03-08T02:15:03;38.33;;;16.40;;
81834;SDS011;71272;52.166;4.498;2024-03-08T02:19:56;36.67;;;15.47;;
81834;SDS011;71272;52.166;4.498;2024-03-08T02:22:21;41.60;;;16.17;;
81834;SDS011;71272;52.166;4.498;2024-03-08T02:24:47;36.07;;;15.20;;
81834;SDS011;71272;52.166;4.498;2024-03-08T02:27:13;33.08;;;15.73;;
81834;SDS011;71272;52.166;4.498;2024-03-08T02:29:38;36.70;;;16.23;;
81834;SDS011;71272;52.166;4.498;2024-03-08T02:32:06;34.80;;;14.88;;
81834;SDS011;71272;52.166;4.498;2024-03-08T02:34:31;39.90;;;16.08;;
81834;SDS011;71272;52.166;4.498;2024-03-08T02:36:56;40.37;;;16.90;;
81834;SDS011;71272;52.166;4.498;2024-03-08T02:39:22;44.07;;;16.60;;
81834;SDS011;71272;52.166;4.498;2024-03-08T02:41:47;35.07;;;16.27;;
81834;SDS011;71272;52.166;4.498;2024-03-08T02:44:12;40.10;;;16.13;;
81834;SDS011;71272;52.166;4.498;2024-03-08T02:46:37;40.27;;;17.27;;
81834;SDS011;71272;52.166;4.498;2024-03-08T02:49:03;39.90;;;16.27;;
81834;SDS011;71272;52.166;4.498;2024-03-08T02:51:28;36.53;;;15.90;;
81834;SDS011;71272;52.166;4.498;2024-03-08T02:53:54;45.30;;;17.95;;
81834;SDS011;71272;52.166;4.498;2024-03-08T02:56:19;43.47;;;17.60;;
81834;SDS011;71272;52.166;4.498;2024-03-08T02:58:46;40.13;;;15.63;;
81834;SDS011;71272;52.166;4.498;2024-03-08T03:01:13;35.45;;;16.35;;
81834;SDS011;71272;52.166;4.498;2024-03-08T03:03:39;37.30;;;16.45;;
81834;SDS011;71272;52.166;4.498;2024-03-08T03:06:06;34.60;;;16.05;;
81834;SDS011;71272;52.166;4.498;2024-03-08T03:08:32;40.47;;;15.32;;
81834;SDS011;71272;52.166;4.498;2024-03-08T03:10:57;45.43;;;18.73;;
81834;SDS011;71272;52.166;4.498;2024-03-08T03:13:23;35.97;;;16.60;;
81834;SDS011;71272;52.166;4.498;2024-03-08T03:15:48;35.90;;;16.67;;
81834;SDS011;71272;52.166;4.498;2024-03-08T03:18:14;47.83;;;16.80;;
81834;SDS011;71272;52.166;4.498;2024-03-08T03:20:40;40.55;;;16.73;;
81834;SDS011;71272;52.166;4.498;2024-03-08T03:23:07;38.78;;;17.05;;
81834;SDS011;71272;52.166;4.498;2024-03-08T03:25:34;34.35;;;17.40;;
81834;SDS011;71272;52.166;4.498;2024-03-08T03:28:00;37.00;;;16.85;;
81834;SDS011;71272;52.166;4.498;2024-03-08T03:30:29;37.60;;;17.05;;
81834;SDS011;71272;52.166;4.498;2024-03-08T03:32:58;35.80;;;17.30;;
81834;SDS011;71272;52.166;4.498;2024-03-08T03:35:27;40.70;;;18.77;;
81834;SDS011;71272;52.166;4.498;2024-03-08T03:37:53;36.25;;;17.67;;
81834;SDS011;71272;52.166;4.498;2024-03-08T03:40:31;34.78;;;16.30;;
81834;SDS011;71272;52.166;4.498;2024-03-08T03:42:57;42.60;;;18.05;;
81834;SDS011;71272;52.166;4.498;2024-03-08T03:45:23;41.33;;;17.13;;
81834;SDS011;71272;52.166;4.498;2024-03-08T03:47:49;38.95;;;15.77;;
81834;SDS011;71272;52.166;4.498;2024-03-08T03:50:14;44.90;;;19.15;;
81834;SDS011;71272;52.166;4.498;2024-03-08T03:52:40;39.13;;;17.43;;
81834;SDS011;71272;52.166;4.498;2024-03-08T03:55:07;43.72;;;17.02;;
81834;SDS011;71272;52.166;4.498;2024-03-08T03:57:33;35.67;;;16.38;;
81834;SDS011;71272;52.166;4.498;2024-03-08T03:59:58;37.17;;;16.70;;
81834;SDS011;71272;52.166;4.498;2024-03-08T04:02:24;39.47;;;16.93;;
81834;SDS011;71272;52.166;4.498;2024-03-08T04:04:51;34.72;;;16.08;;
81834;SDS011;71272;52.166;4.498;2024-03-08T04:07:17;44.88;;;18.23;;
81834;SDS011;71272;52.166;4.498;2024-03-08T04:09:42;40.63;;;16.97;;
81834;SDS011;71272;52.166;4.498;2024-03-08T04:12:07;47.37;;;16.97;;
81834;SDS011;71272;52.166;4.498;2024-03-08T04:14:34;41.05;;;17.77;;
81834;SDS011;71272;52.166;4.498;2024-03-08T04:17:00;41.38;;;17.10;;
81834;SDS011;71272;52.166;4.498;2024-03-08T04:19:25;41.10;;;16.77;;
81834;SDS011;71272;52.166;4.498;2024-03-08T04:21:53;38.35;;;17.48;;
81834;SDS011;71272;52.166;4.498;2024-03-08T04:24:18;40.25;;;18.02;;
81834;SDS011;71272;52.166;4.498;2024-03-08T04:26:43;42.73;;;19.20;;
81834;SDS011;71272;52.166;4.498;2024-03-08T04:29:10;37.20;;;18.00;;
81834;SDS011;71272;52.166;4.498;2024-03-08T04:31:36;47.40;;;18.35;;
81834;SDS011;71272;52.166;4.498;2024-03-08T04:34:03;45.47;;;19.08;;
81834;SDS011;71272;52.166;4.498;2024-03-08T04:36:30;42.80;;;18.65;;
81834;SDS011;71272;52.166;4.498;2024-03-08T04:38:55;40.07;;;16.77;;
81834;SDS011;71272;52.166;4.498;2024-03-08T04:41:20;39.43;;;17.03;;
81834;SDS011;71272;52.166;4.498;2024-03-08T04:43:46;40.08;;;16.98;;
81834;SDS011;71272;52.166;4.498;2024-03-08T04:46:11;43.53;;;19.33;;
81834;SDS011;71272;52.166;4.498;2024-03-08T04:48:37;36.20;;;16.60;;
81834;SDS011;71272;52.166;4.498;2024-03-08T04:51:02;38.73;;;16.87;;
81834;SDS011;71272;52.166;4.498;2024-03-08T04:53:29;42.35;;;17.35;;
81834;SDS011;71272;52.166;4.498;2024-03-08T04:55:54;46.63;;;18.07;;
81834;SDS011;71272;52.166;4.498;2024-03-08T04:58:22;47.33;;;19.50;;
81834;SDS011;71272;52.166;4.498;2024-03-08T05:00:48;44.03;;;19.08;;
81834;SDS011;71272;52.166;4.498;2024-03-08T05:03:13;37.20;;;16.60;;
81834;SDS011;71272;52.166;4.498;2024-03-08T05:05:39;40.22;;;16.77;;
81834;SDS011;71272;52.166;4.498;2024-03-08T05:08:04;36.53;;;16.67;;
81834;SDS011;71272;52.166;4.498;2024-03-08T05:10:30;39.45;;;17.83;;
81834;SDS011;71272;52.166;4.498;2024-03-08T05:12:55;38.43;;;16.73;;
81834;SDS011;71272;52.166;4.498;2024-03-08T05:15:21;40.87;;;17.80;;
81834;SDS011;71272;52.166;4.498;2024-03-08T05:17:46;38.33;;;18.50;;
81834;SDS011;71272;52.166;4.498;2024-03-08T05:20:11;43.30;;;18.63;;
81834;SDS011;71272;52.166;4.498;2024-03-08T05:22:38;41.20;;;17.02;;
81834;SDS011;71272;52.166;4.498;2024-03-08T05:25:05;36.10;;;15.80;;
81834;SDS011;71272;52.166;4.498;2024-03-08T05:27:33;40.33;;;18.30;;
81834;SDS011;71272;52.166;4.498;2024-03-08T05:29:59;47.10;;;18.85;;
81834;SDS011;71272;52.166;4.498;2024-03-08T05:32:24;42.47;;;18.20;;
81834;SDS011;71272;52.166;4.498;2024-03-08T05:34:49;47.37;;;19.90;;
81834;SDS011;71272;52.166;4.498;2024-03-08T05:37:15;38.60;;;18.33;;
81834;SDS011;71272;52.166;4.498;2024-03-08T05:39:40;42.22;;;17.08;;
81834;SDS011;71272;52.166;4.498;2024-03-08T05:42:06;42.75;;;17.23;;
81834;SDS011;71272;52.166;4.498;2024-03-08T05:44:33;45.92;;;17.42;;
81834;SDS011;71272;52.166;4.498;2024-03-08T05:46:59;43.80;;;18.25;;
81834;SDS011;71272;52.166;4.498;2024-03-08T05:49:24;34.47;;;17.90;;
81834;SDS011;71272;52.166;4.498;2024-03-08T05:51:50;48.60;;;20.00;;
81834;SDS011;71272;52.166;4.498;2024-03-08T05:54:16;41.50;;;18.90;;
81834;SDS011;71272;52.166;4.498;2024-03-08T05:56:42;40.25;;;17.17;;
81834;SDS011;71272;52.166;4.498;2024-03-08T05:59:08;44.47;;;18.23;;
81834;SDS011;71272;52.166;4.498;2024-03-08T06:01:34;44.20;;;20.02;;
81834;SDS011;71272;52.166;4.498;2024-03-08T06:04:01;45.92;;;19.38;;
81834;SDS011;71272;52.166;4.498;2024-03-08T06:06:27;47.30;;;19.08;;
81834;SDS011;71272;52.166;4.498;2024-03-08T06:08:53;35.15;;;16.80;;
81834;SDS011;71272;52.166;4.498;2024-03-08T06:11:21;37.58;;;17.70;;
81834;SDS011;71272;52.166;4.498;2024-03-08T06:13:46;39.53;;;18.77;;
81834;SDS011;71272;52.166;4.498;2024-03-08T06:16:12;40.90;;;18.52;;
81834;SDS011;71272;52.166;4.498;2024-03-08T06:18:37;41.43;;;17.67;;
81834;SDS011;71272;52.166;4.498;2024-03-08T06:21:04;39.03;;;19.08;;
81834;SDS011;71272;52.166;4.498;2024-03-08T06:23:30;45.85;;;19.25;;
81834;SDS011;71272;52.166;4.498;2024-03-08T06:25:59;45.78;;;18.25;;
81834;SDS011;71272;52.166;4.498;2024-03-08T06:28:24;48.13;;;19.95;;
81834;SDS011;71272;52.166;4.498;2024-03-08T06:30:50;43.87;;;20.03;;
81834;SDS011;71272;52.166;4.498;2024-03-08T06:33:16;43.17;;;18.70;;
81834;SDS011;71272;52.166;4.498;2024-03-08T06:35:42;43.20;;;18.88;;
81834;SDS011;71272;52.166;4.498;2024-03-08T06:38:07;43.53;;;19.33;;
81834;SDS011;71272;52.166;4.498;2024-03-08T06:40:32;46.13;;;19.13;;
81834;SDS011;71272;52.166;4.498;2024-03-08T06:42:58;46.38;;;18.02;;
81834;SDS011;71272;52.166;4.498;2024-03-08T06:45:23;38.00;;;17.45;;
81834;SDS011;71272;52.166;4.498;2024-03-08T06:47:50;44.53;;;18.88;;
81834;SDS011;71272;52.166;4.498;2024-03-08T06:50:16;38.95;;;17.65;;
81834;SDS011;71272;52.166;4.498;2024-03-08T06:52:41;37.40;;;17.52;;
81834;SDS011;71272;52.166;4.498;2024-03-08T06:55:11;41.00;;;20.05;;
81834;SDS011;71272;52.166;4.498;2024-03-08T06:57:40;43.72;;;19.60;;
81834;SDS011;71272;52.166;4.498;2024-03-08T07:00:08;44.90;;;21.38;;
81834;SDS011;71272;52.166;4.498;2024-03-08T07:02:35;44.35;;;18.38;;
81834;SDS011;71272;52.166;4.498;2024-03-08T07:05:00;39.60;;;17.38;;
81834;SDS011;71272;52.166;4.498;2024-03-08T07:07:26;49.05;;;19.25;;
81834;SDS011;71272;52.166;4.498;2024-03-08T07:09:51;43.60;;;18.23;;
81834;SDS011;71272;52.166;4.498;2024-03-08T07:12:17;41.37;;;18.63;;
81834;SDS011;71272;52.166;4.498;2024-03-08T07:14:42;40.80;;;16.93;;
81834;SDS011;71272;52.166;4.498;2024-03-08T07:19:36;34.80;;;16.65;;
81834;SDS011;71272;52.166;4.498;2024-03-08T07:22:03;39.78;;;18.92;;
81834;SDS011;71272;52.166;4.498;2024-03-08T07:24:29;45.50;;;19.67;;
81834;SDS011;71272;52.166;4.498;2024-03-08T07:27:15;36.55;;;17.10;;
81834;SDS011;71272;52.166;4.498;2024-03-08T07:29:41;44.10;;;19.02;;
81834;SDS011;71272;52.166;4.498;2024-03-08T07:32:07;39.88;;;18.70;;
81834;SDS011;71272;52.166;4.498;2024-03-08T07:37:15;34.20;;;15.93;;
81834;SDS011;71272;52.166;4.498;2024-03-08T07:39:41;36.97;;;17.02;;
81834;SDS011;71272;52.166;4.498;2024-03-08T07:42:06;40.90;;;18.13;;
81834;SDS011;71272;52.166;4.498;2024-03-08T07:44:32;38.38;;;18.25;;
81834;SDS011;71272;52.166;4.498;2024-03-08T07:46:57;31.73;;;17.23;;
81834;SDS011;71272;52.166;4.498;2024-03-08T07:49:23;36.42;;;18.15;;
81834;SDS011;71272;52.166;4.498;2024-03-08T07:51:49;34.00;;;16.02;;
81834;SDS011;71272;52.166;4.498;2024-03-08T07:54:14;35.60;;;17.40;;
81834;SDS011;71272;52.166;4.498;2024-03-08T07:56:40;35.40;;;17.33;;
81834;SDS011;71272;52.166;4.498;2024-03-08T07:59:05;33.00;;;16.53;;
81834;SDS011;71272;52.166;4.498;2024-03-08T08:01:31;34.80;;;18.08;;
81834;SDS011;71272;52.166;4.498;2024-03-08T08:03:58;32.67;;;17.27;;
81834;SDS011;71272;52.166;4.498;2024-03-08T08:06:23;34.93;;;16.73;;
81834;SDS011;71272;52.166;4.498;2024-03-08T08:08:50;34.45;;;16.15;;
81834;SDS011;71272;52.166;4.498;2024-03-08T08:11:15;33.67;;;16.20;;
81834;SDS011;71272;52.166;4.498;2024-03-08T08:13:41;34.97;;;17.23;;
81834;SDS011;71272;52.166;4.498;2024-03-08T08:16:08;32.10;;;15.82;;
81834;SDS011;71272;52.166;4.498;2024-03-08T08:18:34;32.83;;;16.45;;
81834;SDS011;71272;52.166;4.498;2024-03-08T08:21:01;32.22;;;17.20;;
81834;SDS011;71272;52.166;4.498;2024-03-08T08:23:31;34.97;;;16.92;;
81834;SDS011;71272;52.166;4.498;2024-03-08T08:25:56;32.20;;;16.30;;
81834;SDS011;71272;52.166;4.498;2024-03-08T08:28:22;32.00;;;15.03;;
81834;SDS011;71272;52.166;4.498;2024-03-08T08:30:47;34.47;;;15.13;;
81834;SDS011;71272;52.166;4.498;2024-03-08T08:33:13;33.63;;;16.27;;
81834;SDS011;71272;52.166;4.498;2024-03-08T08:35:40;30.45;;;15.80;;
81834;SDS011;71272;52.166;4.498;2024-03-08T08:38:05;34.38;;;17.08;;
81834;SDS011;71272;52.166;4.498;2024-03-08T08:40:32;31.23;;;15.20;;
81834;SDS011;71272;52.166;4.498;2024-03-08T08:42:58;31.27;;;16.17;;
81834;SDS011;71272;52.166;4.498;2024-03-08T08:45:23;32.90;;;15.57;;
81834;SDS011;71272;52.166;4.498;2024-03-08T08:47:49;28.57;;;15.30;;
81834;SDS011;71272;52.166;4.498;2024-03-08T08:50:14;32.80;;;16.80;;
81834;SDS011;71272;52.166;4.498;2024-03-08T08:52:41;32.22;;;16.08;;
81834;SDS011;71272;52.166;4.498;2024-03-08T08:55:09;28.55;;;15.35;;
81834;SDS011;71272;52.166;4.498;2024-03-08T08:57:39;30.33;;;14.95;;
81834;SDS011;71272;52.166;4.498;2024-03-08T09:00:05;37.03;;;16.10;;
81834;SDS011;71272;52.166;4.498;2024-03-08T09:02:32;32.13;;;14.63;;
81834;SDS011;71272;52.166;4.498;2024-03-08T09:04:57;31.25;;;16.30;;
81834;SDS011;71272;52.166;4.498;2024-03-08T09:07:23;28.83;;;15.03;;
81834;SDS011;71272;52.166;4.498;2024-03-08T09:09:49;30.35;;;15.57;;
81834;SDS011;71272;52.166;4.498;2024-03-08T09:12:14;27.37;;;14.77;;
81834;SDS011;71272;52.166;4.498;2024-03-08T09:14:40;29.23;;;15.60;;
81834;SDS011;71272;52.166;4.498;2024-03-08T09:17:06;29.13;;;14.23;;
81834;SDS011;71272;52.166;4.498;2024-03-08T09:19:34;31.77;;;15.45;;
81834;SDS011;71272;52.166;4.498;2024-03-08T09:22:00;33.25;;;16.85;;
81834;SDS011;71272;52.166;4.498;2024-03-08T09:24:25;29.97;;;15.60;;
81834;SDS011;71272;52.166;4.498;2024-03-08T09:26:50;26.67;;;13.60;;
81834;SDS011;71272;52.166;4.498;2024-03-08T09:29:17;29.42;;;15.13;;
81834;SDS011;71272;52.166;4.498;2024-03-08T09:31:42;29.77;;;15.43;;
81834;SDS011;71272;52.166;4.498;2024-03-08T09:34:07;30.07;;;15.77;;
81834;SDS011;71272;52.166;4.498;2024-03-08T09:36:33;30.73;;;15.25;;
81834;SDS011;71272;52.166;4.498;2024-03-08T09:38:59;26.40;;;15.13;;
81834;SDS011;71272;52.166;4.498;2024-03-08T09:41:25;28.35;;;15.32;;
81834;SDS011;71272;52.166;4.498;2024-03-08T09:43:51;29.65;;;14.85;;
81834;SDS011;71272;52.166;4.498;2024-03-08T09:46:16;28.67;;;14.87;;
81834;SDS011;71272;52.166;4.498;2024-03-08T09:48:44;31.80;;;16.10;;
81834;SDS011;71272;52.166;4.498;2024-03-08T09:51:11;30.67;;;15.52;;
81834;SDS011;71272;52.166;4.498;2024-03-08T09:53:40;28.70;;;14.80;;
81834;SDS011;71272;52.166;4.498;2024-03-08T09:56:05;26.98;;;15.50;;
81834;SDS011;71272;52.166;4.498;2024-03-08T09:58:31;31.42;;;15.75;;
81834;SDS011;71272;52.166;4.498;2024-03-08T10:00:59;30.88;;;15.77;;
81834;SDS011;71272;52.166;4.498;2024-03-08T10:03:29;27.05;;;16.05;;
81834;SDS011;71272;52.166;4.498;2024-03-08T10:05:58;29.35;;;15.23;;
81834;SDS011;71272;52.166;4.498;2024-03-08T10:08:29;25.30;;;13.07;;
81834;SDS011;71272;52.166;4.498;2024-03-08T10:10:56;25.58;;;13.30;;
81834;SDS011;71272;52.166;4.498;2024-03-08T10:13:25;27.52;;;14.63;;
81834;SDS011;71272;52.166;4.498;2024-03-08T10:15:54;27.10;;;14.15;;
81834;SDS011;71272;52.166;4.498;2024-03-08T10:18:19;28.40;;;16.10;;
81834;SDS011;71272;52.166;4.498;2024-03-08T10:20:46;31.55;;;15.90;;
81834;SDS011;71272;52.166;4.498;2024-03-08T10:23:11;28.33;;;14.93;;
81834;SDS011;71272;52.166;4.498;2024-03-08T10:25:37;26.95;;;15.57;;
81834;SDS011;71272;52.166;4.498;2024-03-08T10:28:03;28.23;;;15.52;;
81834;SDS011;71272;52.166;4.498;2024-03-08T10:30:31;25.40;;;14.18;;
81834;SDS011;71272;52.166;4.498;2024-03-08T10:32:57;32.03;;;15.60;;
81834;SDS011;71272;52.166;4.498;2024-03-08T10:35:23;29.30;;;14.65;;
81834;SDS011;71272;52.166;4.498;2024-03-08T10:37:50;26.30;;;14.88;;
81834;SDS011;71272;52.166;4.498;2024-03-08T10:40:23;28.58;;;14.98;;
81834;SDS011;71272;52.166;4.498;2024-03-08T10:42:56;25.60;;;13.57;;
81834;SDS011;71272;52.166;4.498;2024-03-08T10:45:29;28.95;;;14.63;;
81834;SDS011;71272;52.166;4.498;2024-03-08T10:48:10;29.08;;;14.57;;
81834;SDS011;71272;52.166;4.498;2024-03-08T10:50:42;26.13;;;14.45;;
81834;SDS011;71272;52.166;4.498;2024-03-08T10:53:11;26.98;;;15.05;;
81834;SDS011;71272;52.166;4.498;2024-03-08T10:55:39;23.95;;;13.90;;
81834;SDS011;71272;52.166;4.498;2024-03-08T10:58:05;26.90;;;14.02;;
81834;SDS011;71272;52.166;4.498;2024-03-08T11:00:32;25.10;;;14.70;;
81834;SDS011;71272;52.166;4.498;2024-03-08T11:02:58;26.90;;;14.73;;
81834;SDS011;71272;52.166;4.498;2024-03-08T11:08:00;27.13;;;13.82;;
81834;SDS011;71272;52.166;4.498;2024-03-08T11:10:29;25.95;;;13.75;;
81834;SDS011;71272;52.166;4.498;2024-03-08T11:12:54;23.53;;;14.53;;
81834;SDS011;71272;52.166;4.498;2024-03-08T11:15:19;28.60;;;14.83;;
81834;SDS011;71272;52.166;4.498;2024-03-08T11:17:45;23.87;;;14.17;;
81834;SDS011;71272;52.166;4.498;2024-03-08T11:20:13;25.85;;;13.13;;
81834;SDS011;71272;52.166;4.498;2024-03-08T11:22:51;27.00;;;13.57;;
81834;SDS011;71272;52.166;4.498;2024-03-08T11:25:32;23.38;;;12.98;;
81834;SDS011;71272;52.166;4.498;2024-03-08T11:33:30;24.75;;;13.73;;
81834;SDS011;71272;52.166;4.498;2024-03-08T11:38:31;23.98;;;13.90;;
81834;SDS011;71272;52.166;4.498;2024-03-08T11:40:58;23.20;;;13.07;;
81834;SDS011;71272;52.166;4.498;2024-03-08T11:43:23;21.10;;;12.57;;
81834;SDS011;71272;52.166;4.498;2024-03-08T11:45:49;21.48;;;12.13;;
81834;SDS011;71272;52.166;4.498;2024-03-08T11:48:15;20.67;;;12.47;;
81834;SDS011;71272;52.166;4.498;2024-03-08T11:50:40;23.63;;;13.40;;
81834;SDS011;71272;52.166;4.498;2024-03-08T11:53:07;19.60;;;12.95;;
81834;SDS011;71272;52.166;4.498;2024-03-08T11:55:32;22.40;;;13.20;;
81834;SDS011;71272;52.166;4.498;2024-03-08T11:58:03;21.42;;;12.98;;
81834;SDS011;71272;52.166;4.498;2024-03-08T12:00:33;21.25;;;14.27;;
81834;SDS011;71272;52.166;4.498;2024-03-08T12:03:03;18.77;;;12.80;;
81834;SDS011;71272;52.166;4.498;2024-03-08T12:05:30;21.92;;;14.20;;
81834;SDS011;71272;52.166;4.498;2024-03-08T12:07:58;20.60;;;13.20;;
81834;SDS011;71272;52.166;4.498;2024-03-08T12:10:23;18.67;;;13.30;;
81834;SDS011;71272;52.166;4.498;2024-03-08T12:12:51;23.00;;;14.20;;
81834;SDS011;71272;52.166;4.498;2024-03-08T12:15:18;18.63;;;13.82;;
81834;SDS011;71272;52.166;4.498;2024-03-08T12:17:48;21.65;;;12.65;;
81834;SDS011;71272;52.166;4.498;2024-03-08T12:22:42;17.77;;;12.70;;
81834;SDS011;71272;52.166;4.498;2024-03-08T12:25:09;17.92;;;12.65;;
81834;SDS011;71272;52.166;4.498;2024-03-08T12:27:37;18.77;;;12.55;;
81834;SDS011;71272;52.166;4.498;2024-03-08T12:30:20;18.90;;;12.82;;
81834;SDS011;71272;52.166;4.498;2024-03-08T12:32:51;19.90;;;12.57;;
81834;SDS011;71272;52.166;4.498;2024-03-08T12:35:18;17.02;;;12.25;;
81834;SDS011;71272;52.166;4.498;2024-03-08T12:37:47;17.17;;;12.70;;
81834;SDS011;71272;52.166;4.498;2024-03-08T12:40:14;16.98;;;12.88;;
81834;SDS011;71272;52.166;4.498;2024-03-08T12:42:41;16.52;;;12.02;;
81834;SDS011;71272;52.166;4.498;2024-03-08T12:45:08;18.45;;;12.30;;
81834;SDS011;71272;52.166;4.498;2024-03-08T12:47:35;15.02;;;10.75;;
81834;SDS011;71272;52.166;4.498;2024-03-08T12:50:00;17.55;;;12.15;;
81834;SDS011;71272;52.166;4.498;2024-03-08T12:52:26;15.55;;;10.60;;
81834;SDS011;71272;52.166;4.498;2024-03-08T12:54:51;14.83;;;10.20;;
81834;SDS011;71272;52.166;4.498;2024-03-08T12:57:16;15.80;;;10.73;;
81834;SDS011;71272;52.166;4.498;2024-03-08T12:59:42;15.57;;;10.75;;
81834;SDS011;71272;52.166;4.498;2024-03-08T13:02:07;16.45;;;10.90;;
81834;SDS011;71272;52.166;4.498;2024-03-08T13:04:36;14.40;;;10.13;;
81834;SDS011;71272;52.166;4.498;2024-03-08T13:07:01;17.45;;;10.85;;
81834;SDS011;71272;52.166;4.498;2024-03-08T13:09:27;14.95;;;10.70;;
81834;SDS011;71272;52.166;4.498;2024-03-08T13:11:52;15.05;;;11.43;;
81834;SDS011;71272;52.166;4.498;2024-03-08T13:14:20;19.38;;;12.63;;
81834;SDS011;71272;52.166;4.498;2024-03-08T13:16:45;16.33;;;10.82;;
81834;SDS011;71272;52.166;4.498;2024-03-08T13:19:13;18.48;;;11.75;;
81834;SDS011;71272;52.166;4.498;2024-03-08T13:21:39;17.85;;;11.73;;
81834;SDS011;71272;52.166;4.498;2024-03-08T13:24:04;17.00;;;12.23;;
81834;SDS011;71272;52.166;4.498;2024-03-08T13:26:30;17.10;;;11.90;;
81834;SDS011;71272;52.166;4.498;2024-03-08T13:28:58;15.02;;;11.02;;
81834;SDS011;71272;52.166;4.498;2024-03-08T13:31:24;18.20;;;12.27;;
81834;SDS011;71272;52.166;4.498;2024-03-08T13:33:49;16.33;;;11.67;;
81834;SDS011;71272;52.166;4.498;2024-03-08T13:36:16;18.38;;;11.68;;
81834;SDS011;71272;52.166;4.498;2024-03-08T13:38:46;17.30;;;11.63;;
81834;SDS011;71272;52.166;4.498;2024-03-08T13:41:12;16.67;;;12.18;;
81834;SDS011;71272;52.166;4.498;2024-03-08T13:43:46;19.35;;;11.68;;
81834;SDS011;71272;52.166;4.498;2024-03-08T13:46:14;17.67;;;12.05;;
81834;SDS011;71272;52.166;4.498;2024-03-08T13:48:40;17.48;;;11.50;;
81834;SDS011;71272;52.166;4.498;2024-03-08T13:51:06;17.27;;;11.52;;
81834;SDS011;71272;52.166;4.498;2024-03-08T13:53:33;19.05;;;11.30;;
81834;SDS011;71272;52.166;4.498;2024-03-08T13:55:59;18.65;;;11.05;;
81834;SDS011;71272;52.166;4.498;2024-03-08T13:58:26;17.33;;;12.20;;
81834;SDS011;71272;52.166;4.498;2024-03-08T14:00:51;16.88;;;11.95;;
81834;SDS011;71272;52.166;4.498;2024-03-08T14:03:17;16.93;;;11.87;;
81834;SDS011;71272;52.166;4.498;2024-03-08T14:05:43;19.70;;;12.48;;
81834;SDS011;71272;52.166;4.498;2024-03-08T14:08:09;16.95;;;12.18;;
81834;SDS011;71272;52.166;4.498;2024-03-08T14:10:36;18.48;;;11.38;;
81834;SDS011;71272;52.166;4.498;2024-03-08T14:13:02;19.08;;;12.38;;
81834;SDS011;71272;52.166;4.498;2024-03-08T14:15:32;20.20;;;12.07;;
81834;SDS011;71272;52.166;4.498;2024-03-08T14:17:58;18.08;;;12.43;;
81834;SDS011;71272;52.166;4.498;2024-03-08T14:20:23;17.63;;;12.07;;
81834;SDS011;71272;52.166;4.498;2024-03-08T14:22:55;19.40;;;12.35;;
81834;SDS011;71272;52.166;4.498;2024-03-08T14:25:21;18.10;;;11.95;;
81834;SDS011;71272;52.166;4.498;2024-03-08T14:27:49;19.48;;;12.52;;
81834;SDS011;71272;52.166;4.498;2024-03-08T14:30:15;19.98;;;12.60;;
81834;SDS011;71272;52.166;4.498;2024-03-08T14:32:57;18.60;;;12.55;;
81834;SDS011;71272;52.166;4.498;2024-03-08T14:35:23;16.98;;;12.20;;
81834;SDS011;71272;52.166;4.498;2024-03-08T14:37:49;17.98;;;10.70;;